sensor_id;sensor_type;location;lat;lon;timestamp;P1;durP1;ratioP1;P2;durP2;ratioP2
22837;SDS011;11585;51.450;-0.240;2023-04-22T00:01:52;86.72;;;33.47;;
22837;SDS011;11585;51.450;-0.240;2023-04-22T00:04:17;88.72;;;34.17;;
22837;SDS011;11585;51.450;-0.240;2023-04-22T00:06:45;88.63;;;33.85;;
22837;SDS011;11585;51.450;-0.240;2023-04-22T00:09:13;84.88;;;33.50;;
22837;SDS011;11585;51.450;-0.240;2023-04-22T00:11:38;88.68;;;33.75;;
22837;SDS011;11585;51.450;-0.240;2023-04-22T00:14:04;82.03;;;32.83;;
22837;SDS011;11585;51.450;-0.240;2023-04-22T00:16:30;88.93;;;35.40;;
22837;SDS011;11585;51.450;-0.240;2023-04-22T00:25:40;90.00;;;35.05;;
22837;SDS011;11585;51.450;-0.240;2023-04-22T00:31:28;90.88;;;34.17;;
22837;SDS011;11585;51.450;-0.240;2023-04-22T00:33:53;89.88;;;34.65;;
22837;SDS011;11585;51.450;-0.240;2023-04-22T00:36:19;86.93;;;33.55;;
22837;SDS011;11585;51.450;-0.240;2023-04-22T00:41:33;84.22;;;33.17;;
22837;SDS011;11585;51.450;-0.240;2023-04-22T00:43:59;90.47;;;35.40;;
22837;SDS011;11585;51.450;-0.240;2023-04-22T00:46:25;90.53;;;34.45;;
22837;SDS011;11585;51.450;-0.240;2023-04-22T00:51:55;82.45;;;32.05;;
22837;SDS011;11585;51.450;-0.240;2023-04-22T00:54:21;85.68;;;32.95;;
22837;SDS011;11585;51.450;-0.240;2023-04-22T00:56:47;88.40;;;32.63;;
22837;SDS011;11585;51.450;-0.240;2023-04-22T00:59:16;92.22;;;35.65;;
22837;SDS011;11585;51.450;-0.240;2023-04-22T01:01:42;86.72;;;33.35;;
22837;SDS011;11585;51.450;-0.240;2023-04-22T01:04:08;87.97;;;34.45;;
22837;SDS011;11585;51.450;-0.240;2023-04-22T01:06:36;87.75;;;33.97;;
22837;SDS011;11585;51.450;-0.240;2023-04-22T01:09:05;84.40;;;33.55;;
22837;SDS011;11585;51.450;-0.240;2023-04-22T01:11:32;95.15;;;36.00;;
22837;SDS011;11585;51.450;-0.240;2023-04-22T01:13:59;92.78;;;34.53;;
22837;SDS011;11585;51.450;-0.240;2023-04-22T01:16:24;90.20;;;33.22;;
22837;SDS011;11585;51.450;-0.240;2023-04-22T01:37:31;90.00;;;33.83;;
22837;SDS011;11585;51.450;-0.240;2023-04-22T01:39:57;105.47;;;38.85;;
22837;SDS011;11585;51.450;-0.240;2023-04-22T01:42:23;101.85;;;38.35;;
22837;SDS011;11585;51.450;-0.240;2023-04-22T01:44:49;104.47;;;38.13;;
22837;SDS011;11585;51.450;-0.240;2023-04-22T01:50:01;101.38;;;37.22;;
22837;SDS011;11585;51.450;-0.240;2023-04-22T01:52:27;95.65;;;35.42;;
22837;SDS011;11585;51.450;-0.240;2023-04-22T01:54:54;93.00;;;35.60;;
22837;SDS011;11585;51.450;-0.240;2023-04-22T01:57:23;93.80;;;35.33;;
22837;SDS011;11585;51.450;-0.240;2023-04-22T01:59:49;102.55;;;38.17;;
22837;SDS011;11585;51.450;-0.240;2023-04-22T02:02:14;98.68;;;37.25;;
22837;SDS011;11585;51.450;-0.240;2023-04-22T02:04:40;94.47;;;36.30;;
22837;SDS011;11585;51.450;-0.240;2023-04-22T02:07:06;94.25;;;36.30;;
22837;SDS011;11585;51.450;-0.240;2023-04-22T02:16:01;89.60;;;34.08;;
22837;SDS011;11585;51.450;-0.240;2023-04-22T02:18:29;98.47;;;36.10;;
22837;SDS011;11585;51.450;-0.240;2023-04-22T02:20:55;92.47;;;33.60;;
22837;SDS011;11585;51.450;-0.240;2023-04-22T02:23:21;88.25;;;34.55;;
22837;SDS011;11585;51.450;-0.240;2023-04-22T02:25:47;89.03;;;35.13;;
22837;SDS011;11585;51.450;-0.240;2023-04-22T02:28:16;90.75;;;34.83;;
22837;SDS011;11585;51.450;-0.240;2023-04-22T02:30:43;90.82;;;36.00;;
22837;SDS011;11585;51.450;-0.240;2023-04-22T02:33:09;89.78;;;35.30;;
22837;SDS011;11585;51.450;-0.240;2023-04-22T02:35:35;86.53;;;33.80;;
22837;SDS011;11585;51.450;-0.240;2023-04-22T02:38:03;86.22;;;34.60;;
22837;SDS011;11585;51.450;-0.240;2023-04-22T02:40:29;85.72;;;32.78;;
22837;SDS011;11585;51.450;-0.240;2023-04-22T02:42:55;86.10;;;34.65;;
22837;SDS011;11585;51.450;-0.240;2023-04-22T02:45:20;94.95;;;36.08;;
22837;SDS011;11585;51.450;-0.240;2023-04-22T02:51:09;92.32;;;34.70;;
22837;SDS011;11585;51.450;-0.240;2023-04-22T02:53:34;92.80;;;37.28;;
22837;SDS011;11585;51.450;-0.240;2023-04-22T02:56:01;91.68;;;35.25;;
22837;SDS011;11585;51.450;-0.240;2023-04-22T03:01:32;90.38;;;35.25;;
22837;SDS011;11585;51.450;-0.240;2023-04-22T03:03:58;87.97;;;33.25;;
22837;SDS011;11585;51.450;-0.240;2023-04-22T03:06:23;80.43;;;33.78;;
22837;SDS011;11585;51.450;-0.240;2023-04-22T03:12:11;79.10;;;32.83;;
22837;SDS011;11585;51.450;-0.240;2023-04-22T03:14:36;83.53;;;32.63;;
22837;SDS011;11585;51.450;-0.240;2023-04-22T03:17:05;89.93;;;34.80;;
22837;SDS011;11585;51.450;-0.240;2023-04-22T03:22:52;82.85;;;33.15;;
22837;SDS011;11585;51.450;-0.240;2023-04-22T03:25:18;79.57;;;32.58;;
22837;SDS011;11585;51.450;-0.240;2023-04-22T03:27:44;91.28;;;33.95;;
22837;SDS011;11585;51.450;-0.240;2023-04-22T03:30:10;82.68;;;33.38;;
22837;SDS011;11585;51.450;-0.240;2023-04-22T03:32:35;88.15;;;34.05;;
22837;SDS011;11585;51.450;-0.240;2023-04-22T03:35:02;75.50;;;33.45;;
22837;SDS011;11585;51.450;-0.240;2023-04-22T03:37:30;82.13;;;30.83;;
22837;SDS011;11585;51.450;-0.240;2023-04-22T03:39:56;76.85;;;30.27;;
22837;SDS011;11585;51.450;-0.240;2023-04-22T03:42:24;72.55;;;32.13;;
22837;SDS011;11585;51.450;-0.240;2023-04-22T03:44:50;73.18;;;32.22;;
22837;SDS011;11585;51.450;-0.240;2023-04-22T03:50:20;77.55;;;30.80;;
22837;SDS011;11585;51.450;-0.240;2023-04-22T03:52:46;74.15;;;32.03;;
22837;SDS011;11585;51.450;-0.240;2023-04-22T03:55:11;79.95;;;32.95;;
22837;SDS011;11585;51.450;-0.240;2023-04-22T04:04:03;80.13;;;32.40;;
22837;SDS011;11585;51.450;-0.240;2023-04-22T04:06:29;76.30;;;31.48;;
22837;SDS011;11585;51.450;-0.240;2023-04-22T04:08:56;81.18;;;30.98;;
22837;SDS011;11585;51.450;-0.240;2023-04-22T04:11:22;72.38;;;31.70;;
22837;SDS011;11585;51.450;-0.240;2023-04-22T04:13:48;78.88;;;31.98;;
22837;SDS011;11585;51.450;-0.240;2023-04-22T04:16:14;84.32;;;31.90;;
22837;SDS011;11585;51.450;-0.240;2023-04-22T04:18:40;76.05;;;31.25;;
22837;SDS011;11585;51.450;-0.240;2023-04-22T04:21:09;89.43;;;34.97;;
22837;SDS011;11585;51.450;-0.240;2023-04-22T04:23:50;78.88;;;33.08;;
22837;SDS011;11585;51.450;-0.240;2023-04-22T04:26:16;77.55;;;32.33;;
22837;SDS011;11585;51.450;-0.240;2023-04-22T04:31:27;74.68;;;32.28;;
22837;SDS011;11585;51.450;-0.240;2023-04-22T04:33:52;83.03;;;34.22;;
22837;SDS011;11585;51.450;-0.240;2023-04-22T04:36:21;79.93;;;31.48;;
22837;SDS011;11585;51.450;-0.240;2023-04-22T04:45:27;74.70;;;30.77;;
22837;SDS011;11585;51.450;-0.240;2023-04-22T04:51:04;81.97;;;31.80;;
22837;SDS011;11585;51.450;-0.240;2023-04-22T04:53:30;79.88;;;32.05;;
22837;SDS011;11585;51.450;-0.240;2023-04-22T04:55:55;79.47;;;30.60;;
22837;SDS011;11585;51.450;-0.240;2023-04-22T05:01:43;75.63;;;31.67;;
22837;SDS011;11585;51.450;-0.240;2023-04-22T05:04:15;81.05;;;32.20;;
22837;SDS011;11585;51.450;-0.240;2023-04-22T05:06:41;75.03;;;32.05;;
22837;SDS011;11585;51.450;-0.240;2023-04-22T05:09:08;81.50;;;34.05;;
22837;SDS011;11585;51.450;-0.240;2023-04-22T05:11:34;81.20;;;34.80;;
22837;SDS011;11585;51.450;-0.240;2023-04-22T05:13:59;77.05;;;32.72;;
22837;SDS011;11585;51.450;-0.240;2023-04-22T05:16:26;87.55;;;34.92;;
22837;SDS011;11585;51.450;-0.240;2023-04-22T05:18:54;81.25;;;33.22;;
22837;SDS011;11585;51.450;-0.240;2023-04-22T05:21:23;78.32;;;32.58;;
22837;SDS011;11585;51.450;-0.240;2023-04-22T05:23:48;88.10;;;34.35;;
22837;SDS011;11585;51.450;-0.240;2023-04-22T05:26:14;81.57;;;32.65;;
22837;SDS011;11585;51.450;-0.240;2023-04-22T05:31:26;79.00;;;30.70;;
22837;SDS011;11585;51.450;-0.240;2023-04-22T05:33:53;80.57;;;31.90;;
22837;SDS011;11585;51.450;-0.240;2023-04-22T05:36:18;82.25;;;31.52;;
22837;SDS011;11585;51.450;-0.240;2023-04-22T05:42:06;75.28;;;30.58;;
22837;SDS011;11585;51.450;-0.240;2023-04-22T05:44:33;76.35;;;31.90;;
22837;SDS011;11585;51.450;-0.240;2023-04-22T05:46:58;76.90;;;29.85;;
22837;SDS011;11585;51.450;-0.240;2023-04-22T05:52:28;72.10;;;29.17;;
22837;SDS011;11585;51.450;-0.240;2023-04-22T05:54:56;70.15;;;30.65;;
22837;SDS011;11585;51.450;-0.240;2023-04-22T05:57:24;77.55;;;31.30;;
22837;SDS011;11585;51.450;-0.240;2023-04-22T05:59:50;74.40;;;30.10;;
22837;SDS011;11585;51.450;-0.240;2023-04-22T06:02:15;69.30;;;30.55;;
22837;SDS011;11585;51.450;-0.240;2023-04-22T06:04:41;72.88;;;29.20;;
22837;SDS011;11585;51.450;-0.240;2023-04-22T06:07:07;79.13;;;31.92;;
22837;SDS011;11585;51.450;-0.240;2023-04-22T06:09:35;76.55;;;30.80;;
22837;SDS011;11585;51.450;-0.240;2023-04-22T06:12:00;71.88;;;31.17;;
22837;SDS011;11585;51.450;-0.240;2023-04-22T06:14:26;68.68;;;29.90;;
22837;SDS011;11585;51.450;-0.240;2023-04-22T06:16:52;80.40;;;30.80;;
22837;SDS011;11585;51.450;-0.240;2023-04-22T06:22:39;73.47;;;30.50;;
22837;SDS011;11585;51.450;-0.240;2023-04-22T06:25:05;75.78;;;30.70;;
22837;SDS011;11585;51.450;-0.240;2023-04-22T06:27:31;74.13;;;31.05;;
22837;SDS011;11585;51.450;-0.240;2023-04-22T06:29:57;70.88;;;29.60;;
22837;SDS011;11585;51.450;-0.240;2023-04-22T06:32:22;79.10;;;30.05;;
22837;SDS011;11585;51.450;-0.240;2023-04-22T06:34:48;76.28;;;31.42;;
22837;SDS011;11585;51.450;-0.240;2023-04-22T06:40:00;76.05;;;29.92;;
22837;SDS011;11585;51.450;-0.240;2023-04-22T06:42:26;81.60;;;32.55;;
22837;SDS011;11585;51.450;-0.240;2023-04-22T06:44:55;87.47;;;33.72;;
22837;SDS011;11585;51.450;-0.240;2023-04-22T06:47:23;81.30;;;31.45;;
22837;SDS011;11585;51.450;-0.240;2023-04-22T06:49:49;89.85;;;33.67;;
22837;SDS011;11585;51.450;-0.240;2023-04-22T06:52:14;89.95;;;33.15;;
22837;SDS011;11585;51.450;-0.240;2023-04-22T06:54:40;84.53;;;32.78;;
22837;SDS011;11585;51.450;-0.240;2023-04-22T06:57:06;77.95;;;33.47;;
22837;SDS011;11585;51.450;-0.240;2023-04-22T06:59:32;74.32;;;31.45;;
22837;SDS011;11585;51.450;-0.240;2023-04-22T07:01:57;83.00;;;34.63;;
22837;SDS011;11585;51.450;-0.240;2023-04-22T07:04:23;74.93;;;31.67;;
22837;SDS011;11585;51.450;-0.240;2023-04-22T07:06:51;77.00;;;32.65;;
22837;SDS011;11585;51.450;-0.240;2023-04-22T07:09:18;79.68;;;32.50;;
22837;SDS011;11585;51.450;-0.240;2023-04-22T07:11:43;83.35;;;34.65;;
22837;SDS011;11585;51.450;-0.240;2023-04-22T07:14:09;78.55;;;32.78;;
22837;SDS011;11585;51.450;-0.240;2023-04-22T07:16:34;89.10;;;32.70;;
22837;SDS011;11585;51.450;-0.240;2023-04-22T07:21:30;88.15;;;34.17;;
22837;SDS011;11585;51.450;-0.240;2023-04-22T07:23:56;83.55;;;33.83;;
22837;SDS011;11585;51.450;-0.240;2023-04-22T07:26:22;83.90;;;32.97;;
22837;SDS011;11585;51.450;-0.240;2023-04-22T07:28:48;101.50;;;37.45;;
22837;SDS011;11585;51.450;-0.240;2023-04-22T07:31:14;99.65;;;36.38;;
22837;SDS011;11585;51.450;-0.240;2023-04-22T07:33:40;99.55;;;37.30;;
22837;SDS011;11585;51.450;-0.240;2023-04-22T07:36:06;91.15;;;35.63;;
22837;SDS011;11585;51.450;-0.240;2023-04-22T07:41:36;103.72;;;38.75;;
22837;SDS011;11585;51.450;-0.240;2023-04-22T07:44:02;106.47;;;38.28;;
22837;SDS011;11585;51.450;-0.240;2023-04-22T07:46:28;95.00;;;36.40;;
22837;SDS011;11585;51.450;-0.240;2023-04-22T07:51:38;101.07;;;37.92;;
22837;SDS011;11585;51.450;-0.240;2023-04-22T07:54:05;109.15;;;39.42;;
22837;SDS011;11585;51.450;-0.240;2023-04-22T07:56:31;102.20;;;39.10;;
22837;SDS011;11585;51.450;-0.240;2023-04-22T07:58:57;117.38;;;41.92;;
22837;SDS011;11585;51.450;-0.240;2023-04-22T08:01:22;114.50;;;40.58;;
22837;SDS011;11585;51.450;-0.240;2023-04-22T08:03:48;112.28;;;41.80;;
22837;SDS011;11585;51.450;-0.240;2023-04-22T08:06:14;122.30;;;42.70;;
22837;SDS011;11585;51.450;-0.240;2023-04-22T08:11:24;131.00;;;44.08;;
22837;SDS011;11585;51.450;-0.240;2023-04-22T08:13:50;136.20;;;45.47;;
22837;SDS011;11585;51.450;-0.240;2023-04-22T08:16:16;136.73;;;46.47;;
22837;SDS011;11585;51.450;-0.240;2023-04-22T08:18:43;130.70;;;44.35;;
22837;SDS011;11585;51.450;-0.240;2023-04-22T08:21:09;125.85;;;43.92;;
22837;SDS011;11585;51.450;-0.240;2023-04-22T08:23:36;138.75;;;46.38;;
22837;SDS011;11585;51.450;-0.240;2023-04-22T08:26:02;129.48;;;42.53;;
22837;SDS011;11585;51.450;-0.240;2023-04-22T08:28:30;131.88;;;43.40;;
22837;SDS011;11585;51.450;-0.240;2023-04-22T08:30:56;132.35;;;43.13;;
22837;SDS011;11585;51.450;-0.240;2023-04-22T08:33:22;118.47;;;42.05;;
22837;SDS011;11585;51.450;-0.240;2023-04-22T08:35:47;122.80;;;41.28;;
22837;SDS011;11585;51.450;-0.240;2023-04-22T08:38:16;125.72;;;43.53;;
22837;SDS011;11585;51.450;-0.240;2023-04-22T08:40:41;115.40;;;42.47;;
22837;SDS011;11585;51.450;-0.240;2023-04-22T08:43:07;124.85;;;43.08;;
22837;SDS011;11585;51.450;-0.240;2023-04-22T08:45:33;123.60;;;42.03;;
22837;SDS011;11585;51.450;-0.240;2023-04-22T08:48:01;107.85;;;39.35;;
22837;SDS011;11585;51.450;-0.240;2023-04-22T08:50:28;118.22;;;42.85;;
22837;SDS011;11585;51.450;-0.240;2023-04-22T08:52:54;122.00;;;43.42;;
22837;SDS011;11585;51.450;-0.240;2023-04-22T08:55:20;117.90;;;43.33;;
22837;SDS011;11585;51.450;-0.240;2023-04-22T08:57:46;121.55;;;41.20;;
22837;SDS011;11585;51.450;-0.240;2023-04-22T09:00:12;113.32;;;40.70;;
22837;SDS011;11585;51.450;-0.240;2023-04-22T09:02:40;108.97;;;39.28;;
22837;SDS011;11585;51.450;-0.240;2023-04-22T09:05:09;105.00;;;37.65;;
22837;SDS011;11585;51.450;-0.240;2023-04-22T09:07:40;99.32;;;36.50;;
22837;SDS011;11585;51.450;-0.240;2023-04-22T09:10:08;108.47;;;38.70;;
22837;SDS011;11585;51.450;-0.240;2023-04-22T09:12:35;105.30;;;39.90;;
22837;SDS011;11585;51.450;-0.240;2023-04-22T09:15:02;98.75;;;37.97;;
22837;SDS011;11585;51.450;-0.240;2023-04-22T09:20:15;87.93;;;34.30;;
22837;SDS011;11585;51.450;-0.240;2023-04-22T09:22:43;82.63;;;32.20;;
22837;SDS011;11585;51.450;-0.240;2023-04-22T09:25:16;100.22;;;38.08;;
22837;SDS011;11585;51.450;-0.240;2023-04-22T09:32:53;89.32;;;34.08;;
22837;SDS011;11585;51.450;-0.240;2023-04-22T09:35:27;84.15;;;33.30;;
22837;SDS011;11585;51.450;-0.240;2023-04-22T09:40:43;65.32;;;27.45;;
22837;SDS011;11585;51.450;-0.240;2023-04-22T09:43:10;57.80;;;25.33;;
22837;SDS011;11585;51.450;-0.240;2023-04-22T09:45:37;53.47;;;23.65;;
22837;SDS011;11585;51.450;-0.240;2023-04-22T09:48:06;59.20;;;23.95;;
22837;SDS011;11585;51.450;-0.240;2023-04-22T09:50:34;58.35;;;24.90;;
22837;SDS011;11585;51.450;-0.240;2023-04-22T09:53:05;50.60;;;23.02;;
22837;SDS011;11585;51.450;-0.240;2023-04-22T09:55:33;58.03;;;24.17;;
22837;SDS011;11585;51.450;-0.240;2023-04-22T09:58:22;61.08;;;25.20;;
22837;SDS011;11585;51.450;-0.240;2023-04-22T10:00:51;58.75;;;23.52;;
22837;SDS011;11585;51.450;-0.240;2023-04-22T10:03:19;55.47;;;24.00;;
22837;SDS011;11585;51.450;-0.240;2023-04-22T10:05:44;55.15;;;24.45;;
22837;SDS011;11585;51.450;-0.240;2023-04-22T10:08:10;55.78;;;24.25;;
22837;SDS011;11585;51.450;-0.240;2023-04-22T10:10:37;54.22;;;23.92;;
22837;SDS011;11585;51.450;-0.240;2023-04-22T10:13:04;58.17;;;24.08;;
22837;SDS011;11585;51.450;-0.240;2023-04-22T10:15:33;50.67;;;23.38;;
22837;SDS011;11585;51.450;-0.240;2023-04-22T10:18:23;53.58;;;23.48;;
22837;SDS011;11585;51.450;-0.240;2023-04-22T10:20:50;59.53;;;24.73;;
22837;SDS011;11585;51.450;-0.240;2023-04-22T10:23:18;59.00;;;24.15;;
22837;SDS011;11585;51.450;-0.240;2023-04-22T10:25:46;54.75;;;24.30;;
22837;SDS011;11585;51.450;-0.240;2023-04-22T10:28:19;51.53;;;23.98;;
22837;SDS011;11585;51.450;-0.240;2023-04-22T10:30:46;55.00;;;24.40;;
22837;SDS011;11585;51.450;-0.240;2023-04-22T10:38:41;48.65;;;22.27;;
22837;SDS011;11585;51.450;-0.240;2023-04-22T10:41:33;57.42;;;23.75;;
22837;SDS011;11585;51.450;-0.240;2023-04-22T10:44:00;58.03;;;24.13;;
22837;SDS011;11585;51.450;-0.240;2023-04-22T10:49:11;39.60;;;19.20;;
22837;SDS011;11585;51.450;-0.240;2023-04-22T10:51:49;46.70;;;20.33;;
22837;SDS011;11585;51.450;-0.240;2023-04-22T10:57:09;33.75;;;16.48;;
22837;SDS011;11585;51.450;-0.240;2023-04-22T10:59:41;27.65;;;14.98;;
22837;SDS011;11585;51.450;-0.240;2023-04-22T11:02:10;31.20;;;16.02;;
22837;SDS011;11585;51.450;-0.240;2023-04-22T11:04:38;49.03;;;19.80;;
22837;SDS011;11585;51.450;-0.240;2023-04-22T11:20:20;31.17;;;16.15;;
22837;SDS011;11585;51.450;-0.240;2023-04-22T11:22:47;32.35;;;15.07;;
22837;SDS011;11585;51.450;-0.240;2023-04-22T11:25:15;31.48;;;15.65;;
22837;SDS011;11585;51.450;-0.240;2023-04-22T11:27:42;32.00;;;15.65;;
22837;SDS011;11585;51.450;-0.240;2023-04-22T11:32:44;32.75;;;16.55;;
22837;SDS011;11585;51.450;-0.240;2023-04-22T11:35:12;28.77;;;14.97;;
22837;SDS011;11585;51.450;-0.240;2023-04-22T11:37:41;30.58;;;15.68;;
22837;SDS011;11585;51.450;-0.240;2023-04-22T11:40:08;29.60;;;15.00;;
22837;SDS011;11585;51.450;-0.240;2023-04-22T11:42:35;27.05;;;13.23;;
22837;SDS011;11585;51.450;-0.240;2023-04-22T11:45:01;26.63;;;13.20;;
22837;SDS011;11585;51.450;-0.240;2023-04-22T11:47:28;29.92;;;13.50;;
22837;SDS011;11585;51.450;-0.240;2023-04-22T11:49:58;27.55;;;13.98;;
22837;SDS011;11585;51.450;-0.240;2023-04-22T11:55:10;30.67;;;13.95;;
22837;SDS011;11585;51.450;-0.240;2023-04-22T12:01:02;28.40;;;14.02;;
22837;SDS011;11585;51.450;-0.240;2023-04-22T12:03:28;27.85;;;13.85;;
22837;SDS011;11585;51.450;-0.240;2023-04-22T12:06:03;30.17;;;14.02;;
22837;SDS011;11585;51.450;-0.240;2023-04-22T12:11:38;24.85;;;12.52;;
22837;SDS011;11585;51.450;-0.240;2023-04-22T12:16:39;28.10;;;13.48;;
22837;SDS011;11585;51.450;-0.240;2023-04-22T12:21:54;18.77;;;11.35;;
22837;SDS011;11585;51.450;-0.240;2023-04-22T12:24:25;20.27;;;10.57;;
22837;SDS011;11585;51.450;-0.240;2023-04-22T12:26:52;30.60;;;11.77;;
22837;SDS011;11585;51.450;-0.240;2023-04-22T12:32:14;18.02;;;8.98;;
22837;SDS011;11585;51.450;-0.240;2023-04-22T12:34:40;16.90;;;8.32;;
22837;SDS011;11585;51.450;-0.240;2023-04-22T12:37:07;20.70;;;11.10;;
22837;SDS011;11585;51.450;-0.240;2023-04-22T12:39:33;15.23;;;8.55;;
22837;SDS011;11585;51.450;-0.240;2023-04-22T12:41:59;30.73;;;11.48;;
22837;SDS011;11585;51.450;-0.240;2023-04-22T12:44:24;20.17;;;8.75;;
22837;SDS011;11585;51.450;-0.240;2023-04-22T12:46:51;16.83;;;9.10;;
22837;SDS011;11585;51.450;-0.240;2023-04-22T12:49:20;21.33;;;10.82;;
22837;SDS011;11585;51.450;-0.240;2023-04-22T12:51:55;18.80;;;10.60;;
22837;SDS011;11585;51.450;-0.240;2023-04-22T12:54:26;23.00;;;11.25;;
22837;SDS011;11585;51.450;-0.240;2023-04-22T12:56:55;23.02;;;11.02;;
22837;SDS011;11585;51.450;-0.240;2023-04-22T13:02:34;35.72;;;14.05;;
22837;SDS011;11585;51.450;-0.240;2023-04-22T13:05:29;24.77;;;12.60;;
22837;SDS011;11585;51.450;-0.240;2023-04-22T13:07:55;25.30;;;12.70;;
22837;SDS011;11585;51.450;-0.240;2023-04-22T13:10:21;24.70;;;12.50;;
22837;SDS011;11585;51.450;-0.240;2023-04-22T13:12:47;26.00;;;12.43;;
22837;SDS011;11585;51.450;-0.240;2023-04-22T13:17:43;25.48;;;12.80;;
22837;SDS011;11585;51.450;-0.240;2023-04-22T13:20:12;38.55;;;22.90;;
22837;SDS011;11585;51.450;-0.240;2023-04-22T13:22:40;23.60;;;12.95;;
22837;SDS011;11585;51.450;-0.240;2023-04-22T13:25:11;23.65;;;12.15;;
22837;SDS011;11585;51.450;-0.240;2023-04-22T13:30:56;36.28;;;20.73;;
22837;SDS011;11585;51.450;-0.240;2023-04-22T13:33:29;24.00;;;13.25;;
22837;SDS011;11585;51.450;-0.240;2023-04-22T13:35:55;31.65;;;21.05;;
22837;SDS011;11585;51.450;-0.240;2023-04-22T13:38:22;28.50;;;14.43;;
22837;SDS011;11585;51.450;-0.240;2023-04-22T13:40:47;22.52;;;13.07;;
22837;SDS011;11585;51.450;-0.240;2023-04-22T13:43:16;26.52;;;15.60;;
22837;SDS011;11585;51.450;-0.240;2023-04-22T13:45:51;31.48;;;15.73;;
22837;SDS011;11585;51.450;-0.240;2023-04-22T13:48:19;25.70;;;14.45;;
22837;SDS011;11585;51.450;-0.240;2023-04-22T13:50:47;35.57;;;19.97;;
22837;SDS011;11585;51.450;-0.240;2023-04-22T13:53:13;25.50;;;14.77;;
22837;SDS011;11585;51.450;-0.240;2023-04-22T13:55:56;27.92;;;15.80;;
22837;SDS011;11585;51.450;-0.240;2023-04-22T14:01:08;27.60;;;15.30;;
22837;SDS011;11585;51.450;-0.240;2023-04-22T14:03:37;30.45;;;15.77;;
22837;SDS011;11585;51.450;-0.240;2023-04-22T14:06:02;26.65;;;15.00;;
22837;SDS011;11585;51.450;-0.240;2023-04-22T14:08:28;22.67;;;13.95;;
22837;SDS011;11585;51.450;-0.240;2023-04-22T14:10:54;26.30;;;15.38;;
22837;SDS011;11585;51.450;-0.240;2023-04-22T14:13:23;26.52;;;14.88;;
22837;SDS011;11585;51.450;-0.240;2023-04-22T14:15:52;28.35;;;15.02;;
22837;SDS011;11585;51.450;-0.240;2023-04-22T14:18:18;24.35;;;13.30;;
22837;SDS011;11585;51.450;-0.240;2023-04-22T14:20:46;23.85;;;13.75;;
22837;SDS011;11585;51.450;-0.240;2023-04-22T14:23:11;23.25;;;13.18;;
22837;SDS011;11585;51.450;-0.240;2023-04-22T14:25:37;25.77;;;13.68;;
22837;SDS011;11585;51.450;-0.240;2023-04-22T14:28:03;39.53;;;16.73;;
22837;SDS011;11585;51.450;-0.240;2023-04-22T14:30:29;23.58;;;12.90;;
22837;SDS011;11585;51.450;-0.240;2023-04-22T14:32:57;20.48;;;12.52;;
22837;SDS011;11585;51.450;-0.240;2023-04-22T14:35:41;25.40;;;13.47;;
22837;SDS011;11585;51.450;-0.240;2023-04-22T14:41:33;30.05;;;15.20;;
22837;SDS011;11585;51.450;-0.240;2023-04-22T14:43:59;24.23;;;12.02;;
22837;SDS011;11585;51.450;-0.240;2023-04-22T14:46:27;21.50;;;12.15;;
22837;SDS011;11585;51.450;-0.240;2023-04-22T14:51:42;20.55;;;12.63;;
22837;SDS011;11585;51.450;-0.240;2023-04-22T14:54:13;22.88;;;11.98;;
22837;SDS011;11585;51.450;-0.240;2023-04-22T14:56:42;30.42;;;14.65;;
22837;SDS011;11585;51.450;-0.240;2023-04-22T14:59:23;29.52;;;14.20;;
22837;SDS011;11585;51.450;-0.240;2023-04-22T15:01:49;34.33;;;15.30;;
22837;SDS011;11585;51.450;-0.240;2023-04-22T15:04:15;24.25;;;13.43;;
22837;SDS011;11585;51.450;-0.240;2023-04-22T15:06:43;21.77;;;13.10;;
22837;SDS011;11585;51.450;-0.240;2023-04-22T15:09:10;27.08;;;13.50;;
22837;SDS011;11585;51.450;-0.240;2023-04-22T15:11:36;21.52;;;12.88;;
22837;SDS011;11585;51.450;-0.240;2023-04-22T15:14:01;29.00;;;13.02;;
22837;SDS011;11585;51.450;-0.240;2023-04-22T15:16:27;20.63;;;12.48;;
22837;SDS011;11585;51.450;-0.240;2023-04-22T15:18:53;20.23;;;12.13;;
22837;SDS011;11585;51.450;-0.240;2023-04-22T15:21:19;20.77;;;11.30;;
22837;SDS011;11585;51.450;-0.240;2023-04-22T15:23:44;25.13;;;12.70;;
22837;SDS011;11585;51.450;-0.240;2023-04-22T15:26:10;19.33;;;11.05;;
22837;SDS011;11585;51.450;-0.240;2023-04-22T15:28:36;18.08;;;11.68;;
22837;SDS011;11585;51.450;-0.240;2023-04-22T15:31:02;17.20;;;10.95;;
22837;SDS011;11585;51.450;-0.240;2023-04-22T15:33:28;19.83;;;11.07;;
22837;SDS011;11585;51.450;-0.240;2023-04-22T15:35:54;19.35;;;11.10;;
22837;SDS011;11585;51.450;-0.240;2023-04-22T15:38:23;15.75;;;9.23;;
22837;SDS011;11585;51.450;-0.240;2023-04-22T15:40:49;15.60;;;9.70;;
22837;SDS011;11585;51.450;-0.240;2023-04-22T15:43:15;18.45;;;9.10;;
22837;SDS011;11585;51.450;-0.240;2023-04-22T15:45:40;16.55;;;9.68;;
22837;SDS011;11585;51.450;-0.240;2023-04-22T15:48:07;16.70;;;9.25;;
22837;SDS011;11585;51.450;-0.240;2023-04-22T15:50:33;12.70;;;7.78;;
22837;SDS011;11585;51.450;-0.240;2023-04-22T15:52:59;11.85;;;7.78;;
22837;SDS011;11585;51.450;-0.240;2023-04-22T15:55:24;9.57;;;6.43;;
22837;SDS011;11585;51.450;-0.240;2023-04-22T15:57:50;12.52;;;7.63;;
22837;SDS011;11585;51.450;-0.240;2023-04-22T16:00:16;14.70;;;7.20;;
22837;SDS011;11585;51.450;-0.240;2023-04-22T16:02:42;12.80;;;7.25;;
22837;SDS011;11585;51.450;-0.240;2023-04-22T16:05:08;10.40;;;7.15;;
22837;SDS011;11585;51.450;-0.240;2023-04-22T16:07:35;14.63;;;8.50;;
22837;SDS011;11585;51.450;-0.240;2023-04-22T16:10:00;12.70;;;7.93;;
22837;SDS011;11585;51.450;-0.240;2023-04-22T16:12:26;12.90;;;7.80;;
22837;SDS011;11585;51.450;-0.240;2023-04-22T16:14:52;14.63;;;8.10;;
22837;SDS011;11585;51.450;-0.240;2023-04-22T16:17:17;13.45;;;8.10;;
22837;SDS011;11585;51.450;-0.240;2023-04-22T16:19:44;13.70;;;8.27;;
22837;SDS011;11585;51.450;-0.240;2023-04-22T16:22:10;11.85;;;6.97;;
22837;SDS011;11585;51.450;-0.240;2023-04-22T16:24:36;16.20;;;7.90;;
22837;SDS011;11585;51.450;-0.240;2023-04-22T16:27:01;15.02;;;7.15;;
22837;SDS011;11585;51.450;-0.240;2023-04-22T16:29:27;15.02;;;7.50;;
22837;SDS011;11585;51.450;-0.240;2023-04-22T16:31:53;11.82;;;7.40;;
22837;SDS011;11585;51.450;-0.240;2023-04-22T16:34:18;15.05;;;7.88;;
22837;SDS011;11585;51.450;-0.240;2023-04-22T16:36:45;13.23;;;7.70;;
22837;SDS011;11585;51.450;-0.240;2023-04-22T16:39:12;15.68;;;6.88;;
22837;SDS011;11585;51.450;-0.240;2023-04-22T16:41:38;11.75;;;6.85;;
22837;SDS011;11585;51.450;-0.240;2023-04-22T16:44:07;18.75;;;8.38;;
22837;SDS011;11585;51.450;-0.240;2023-04-22T16:46:33;14.48;;;7.13;;
22837;SDS011;11585;51.450;-0.240;2023-04-22T16:49:01;11.80;;;6.97;;
22837;SDS011;11585;51.450;-0.240;2023-04-22T16:51:26;19.90;;;11.02;;
22837;SDS011;11585;51.450;-0.240;2023-04-22T16:53:52;12.95;;;8.07;;
22837;SDS011;11585;51.450;-0.240;2023-04-22T16:56:18;25.52;;;8.65;;
22837;SDS011;11585;51.450;-0.240;2023-04-22T16:58:45;15.95;;;9.05;;
22837;SDS011;11585;51.450;-0.240;2023-04-22T17:01:11;17.33;;;10.50;;
22837;SDS011;11585;51.450;-0.240;2023-04-22T17:03:37;13.35;;;8.13;;
22837;SDS011;11585;51.450;-0.240;2023-04-22T17:06:02;13.95;;;7.78;;
22837;SDS011;11585;51.450;-0.240;2023-04-22T17:08:28;13.68;;;7.20;;
22837;SDS011;11585;51.450;-0.240;2023-04-22T17:10:54;11.27;;;6.97;;